createdAt,value
2019-05-16T00:01:19.321Z,63.80
2019-05-16T00:03:49.080Z,64.40
2019-05-16T00:06:18.475Z,64.70
2019-05-16T00:08:48.184Z,65.00
2019-05-16T00:11:18.087Z,65.40
2019-05-16T00:13:48.861Z,65.50
2019-05-16T00:16:18.896Z,65.50
2019-05-16T00:18:48.608Z,65.80
2019-05-16T00:21:18.105Z,65.70
2019-05-16T00:23:48.592Z,65.50
2019-05-16T00:26:19.754Z,65.50
2019-05-16T00:28:49.096Z,65.70
2019-05-16T00:31:18.474Z,65.80
2019-05-16T00:33:48.703Z,65.80
2019-05-16T00:36:18.916Z,65.40
2019-05-16T00:38:48.694Z,65.40
2019-05-16T00:41:18.161Z,65.20
2019-05-16T00:43:48.760Z,65.00
2019-05-16T00:46:20.125Z,65.10
2019-05-16T00:48:50.184Z,65.10
2019-05-16T00:51:19.586Z,65.20
2019-05-16T00:53:48.890Z,64.70
2019-05-16T00:56:18.723Z,64.70
2019-05-16T00:58:48.569Z,64.90
2019-05-16T01:01:19.033Z,64.80
2019-05-16T01:03:48.551Z,64.90
2019-05-16T01:06:22.585Z,64.70
2019-05-16T01:08:49.050Z,64.60
2019-05-16T01:11:18.855Z,64.80
2019-05-16T01:13:48.686Z,64.80
2019-05-16T01:16:18.735Z,65.10
2019-05-16T01:18:49.147Z,65.20
2019-05-16T01:21:18.837Z,65.10
2019-05-16T01:23:48.339Z,65.00
2019-05-16T01:26:18.791Z,65.00
2019-05-16T01:28:49.250Z,65.00
2019-05-16T01:31:19.245Z,64.90
2019-05-16T01:33:48.729Z,64.80
2019-05-16T01:36:26.290Z,64.90
2019-05-16T01:38:48.847Z,64.70
2019-05-16T01:41:18.395Z,64.90
2019-05-16T01:43:48.292Z,65.00
2019-05-16T01:46:18.155Z,65.00
2019-05-16T01:48:48.499Z,65.10
2019-05-16T01:51:18.478Z,65.10
2019-05-16T01:53:48.861Z,65.10
2019-05-16T01:56:18.313Z,65.10
2019-05-16T01:58:49.077Z,65.20
2019-05-16T02:01:19.241Z,65.20
2019-05-16T02:03:48.592Z,65.10
2019-05-16T02:06:18.470Z,65.30
2019-05-16T02:08:48.700Z,65.40
2019-05-16T02:11:18.352Z,65.50
2019-05-16T02:13:48.426Z,65.60
2019-05-16T02:16:18.712Z,65.40
2019-05-16T02:18:48.871Z,65.70
2019-05-16T02:21:18.406Z,65.50
2019-05-16T02:23:51.355Z,65.70
2019-05-16T02:26:19.315Z,65.40
2019-05-16T02:28:50.719Z,65.30
2019-05-16T02:31:22.728Z,65.60
2019-05-16T02:33:51.271Z,65.60
2019-05-16T02:36:21.575Z,65.40
2019-05-16T02:38:55.519Z,65.50
2019-05-16T02:41:22.534Z,65.40
2019-05-16T02:43:51.812Z,65.40
2019-05-16T02:46:21.960Z,65.70
2019-05-16T02:48:52.052Z,65.80
2019-05-16T02:51:22.547Z,65.50
2019-05-16T02:53:51.773Z,65.70
2019-05-16T02:56:22.048Z,65.60
2019-05-16T02:58:52.265Z,65.80
2019-05-16T03:01:22.866Z,66.20
2019-05-16T03:03:52.165Z,66.20
2019-05-16T03:06:24.244Z,66.40
2019-05-16T03:08:54.782Z,66.50
2019-05-16T03:11:24.978Z,66.60
2019-05-16T03:13:54.753Z,66.80
2019-05-16T03:16:24.332Z,66.30
2019-05-16T03:18:54.508Z,66.50
2019-05-16T03:21:24.908Z,66.60
2019-05-16T03:23:54.664Z,66.80
2019-05-16T03:26:23.899Z,66.80
2019-05-16T03:28:53.103Z,66.90
2019-05-16T03:31:24.324Z,67.10
2019-05-16T03:33:59.305Z,67.10
2019-05-16T03:36:25.560Z,67.20
2019-05-16T03:38:55.058Z,67.40
2019-05-16T03:41:24.293Z,67.00
2019-05-16T03:43:53.485Z,67.30
2019-05-16T03:46:22.713Z,67.50
2019-05-16T03:48:52.333Z,67.40
2019-05-16T03:51:22.006Z,67.30
2019-05-16T03:53:51.417Z,67.60
2019-05-16T03:56:21.937Z,67.40
2019-05-16T03:58:51.391Z,67.20
2019-05-16T04:01:21.123Z,67.40
2019-05-16T04:03:51.319Z,67.10
2019-05-16T04:06:22.103Z,67.30
2019-05-16T04:08:51.634Z,67.00
2019-05-16T04:11:23.310Z,66.90
2019-05-16T04:13:52.417Z,66.90
2019-05-16T04:16:21.655Z,66.80
2019-05-16T04:18:51.592Z,67.20
2019-05-16T04:21:22.054Z,67.00
2019-05-16T04:23:51.574Z,66.60
2019-05-16T04:26:21.726Z,66.70
2019-05-16T04:28:51.767Z,66.70
2019-05-16T04:31:22.040Z,67.10
2019-05-16T04:33:52.627Z,66.50
2019-05-16T04:36:21.836Z,66.90
2019-05-16T04:38:51.423Z,66.90
2019-05-16T04:41:21.466Z,67.50
2019-05-16T04:43:51.050Z,66.90
2019-05-16T04:46:21.395Z,67.30
2019-05-16T04:48:51.183Z,67.30
2019-05-16T04:51:21.937Z,67.10
2019-05-16T04:53:51.434Z,67.50
2019-05-16T04:56:21.689Z,67.10
2019-05-16T04:58:51.718Z,66.70
2019-05-16T05:01:21.614Z,67.10
2019-05-16T05:04:01.705Z,67.10
2019-05-16T05:06:22.231Z,66.80
2019-05-16T05:08:58.502Z,66.30
2019-05-16T05:11:23.331Z,66.30
2019-05-16T05:13:52.532Z,65.90
2019-05-16T05:16:21.768Z,65.30
2019-05-16T05:18:51.618Z,65.20
2019-05-16T05:21:21.242Z,65.40
2019-05-16T05:23:50.962Z,64.80
2019-05-16T05:26:20.383Z,65.30
2019-05-16T05:28:50.800Z,65.00
2019-05-16T05:31:24.738Z,64.80
2019-05-16T05:33:51.219Z,64.90
2019-05-16T05:36:21.018Z,65.50
2019-05-16T05:39:06.314Z,64.80
2019-05-16T05:41:21.437Z,64.70
2019-05-16T05:43:50.643Z,64.40
2019-05-16T05:46:20.575Z,64.60
2019-05-16T05:48:50.534Z,64.70
2019-05-16T05:51:20.732Z,64.50
2019-05-16T05:53:50.902Z,64.10
2019-05-16T05:56:20.345Z,64.10
2019-05-16T05:58:51.157Z,64.10
2019-05-16T06:01:20.790Z,63.90
2019-05-16T06:03:50.650Z,63.50
2019-05-16T06:06:21.297Z,63.90
2019-05-16T06:08:50.620Z,63.10
2019-05-16T06:11:20.498Z,64.30
2019-05-16T06:13:50.254Z,63.70
2019-05-16T06:16:20.453Z,62.80
2019-05-16T06:18:50.429Z,62.90
2019-05-16T06:21:20.446Z,63.00
2019-05-16T06:23:50.850Z,63.10
2019-05-16T06:26:20.685Z,62.00
2019-05-16T06:28:50.604Z,62.10
2019-05-16T06:31:22.012Z,61.90
2019-05-16T06:33:50.980Z,62.00
2019-05-16T06:36:20.525Z,61.60
2019-05-16T06:38:50.054Z,61.70
2019-05-16T06:41:19.909Z,61.70
2019-05-16T06:43:50.738Z,62.00
2019-05-16T06:46:20.323Z,61.60
2019-05-16T06:48:50.563Z,62.20
2019-05-16T06:51:20.215Z,62.30
2019-05-16T06:53:50.194Z,62.10
2019-05-16T06:56:20.111Z,61.10
2019-05-16T06:58:51.935Z,61.80
2019-05-16T07:01:20.968Z,62.40
2019-05-16T07:03:51.437Z,62.10
2019-05-16T07:06:46.050Z,61.10
2019-05-16T07:08:51.947Z,60.80
2019-05-16T07:11:21.142Z,60.10
2019-05-16T07:13:51.968Z,58.70
2019-05-16T07:16:21.467Z,59.30
2019-05-16T07:18:50.815Z,59.40
2019-05-16T07:21:20.371Z,59.30
2019-05-16T07:23:51.177Z,59.90
2019-05-16T07:26:20.773Z,59.00
2019-05-16T07:28:51.513Z,58.70
2019-05-16T07:31:22.538Z,58.40
2019-05-16T07:33:52.065Z,57.70
2019-05-16T07:36:21.296Z,58.90
2019-05-16T07:38:50.841Z,58.70
2019-05-16T07:41:20.665Z,59.20
2019-05-16T07:43:50.748Z,58.10
2019-05-16T07:46:20.729Z,58.10
2019-05-16T07:48:51.954Z,57.30
2019-05-16T07:51:21.123Z,56.80
2019-05-16T07:53:50.631Z,57.10
2019-05-16T07:56:20.491Z,57.40
2019-05-16T07:58:50.748Z,58.10
2019-05-16T08:01:20.330Z,57.60
2019-05-16T08:03:50.960Z,57.70
2019-05-16T08:06:20.552Z,57.40
2019-05-16T08:08:50.984Z,57.30
2019-05-16T08:11:23.518Z,58.10
2019-05-16T08:13:51.485Z,59.00
2019-05-16T08:16:20.983Z,59.00
2019-05-16T08:18:50.783Z,59.10
2019-05-16T08:21:20.413Z,58.30
2019-05-16T08:23:50.499Z,58.40
2019-05-16T08:26:21.839Z,58.20
2019-05-16T08:28:51.296Z,58.10
2019-05-16T08:31:21.520Z,57.40
2019-05-16T08:33:54.259Z,57.50
2019-05-16T08:36:21.922Z,58.00
2019-05-16T08:38:51.845Z,57.50
2019-05-16T08:41:22.270Z,57.20
2019-05-16T08:43:52.922Z,57.50
2019-05-16T08:46:22.731Z,58.80
2019-05-16T08:51:23.188Z,57.70
2019-05-16T08:53:52.411Z,57.60
2019-05-16T08:56:22.560Z,56.90
2019-05-16T09:01:22.847Z,57.10
2019-05-16T09:03:52.459Z,57.40
2019-05-16T09:06:22.951Z,56.80
2019-05-16T09:08:52.561Z,57.20
2019-05-16T09:10:31.815Z,57.60
2019-05-16T09:10:39.040Z,58.00
2019-05-16T09:11:40.446Z,56.90
2019-05-16T09:13:52.683Z,57.00
2019-05-16T09:16:22.886Z,57.00
2019-05-16T09:18:52.197Z,56.60
2019-05-16T09:21:21.592Z,57.00
2019-05-16T09:23:50.824Z,56.90
2019-05-16T09:26:20.111Z,57.20
2019-05-16T09:28:49.335Z,57.80
2019-05-16T09:31:18.562Z,57.40
2019-05-16T09:33:47.810Z,57.20
2019-05-16T09:36:17.545Z,56.90
2019-05-16T09:38:48.487Z,56.90
2019-05-16T09:41:18.288Z,56.60
2019-05-16T09:43:49.290Z,57.00
2019-05-16T09:46:18.586Z,57.50
2019-05-16T09:48:48.114Z,58.80
2019-05-16T09:51:21.265Z,59.40
2019-05-16T09:53:49.495Z,59.30
2019-05-16T09:56:18.695Z,58.40
2019-05-16T09:58:47.919Z,58.60
2019-05-16T10:01:17.609Z,58.60
2019-05-16T10:03:48.098Z,59.10
2019-05-16T10:06:19.350Z,59.90
2019-05-16T10:08:48.871Z,59.10
2019-05-16T10:11:18.353Z,58.90
2019-05-16T10:13:47.692Z,58.90
2019-05-16T10:16:16.945Z,58.70
2019-05-16T10:18:47.537Z,58.60
2019-05-16T10:21:20.494Z,58.60
2019-05-16T10:23:48.351Z,58.30
2019-05-16T10:26:19.449Z,57.70
2019-05-16T10:28:48.484Z,57.10
2019-05-16T10:31:17.984Z,56.30
2019-05-16T10:33:47.894Z,55.50
2019-05-16T10:36:21.457Z,54.70
2019-05-16T10:38:48.791Z,54.90
2019-05-16T10:41:18.020Z,56.80
2019-05-16T10:43:47.556Z,55.40
2019-05-16T10:46:17.730Z,55.70
2019-05-16T10:48:47.216Z,56.00
2019-05-16T10:51:17.062Z,56.20
2019-05-16T10:54:05.865Z,55.80
2019-05-16T10:56:17.492Z,54.50
2019-05-16T10:59:24.881Z,53.30
2019-05-16T11:01:26.943Z,53.50
2019-05-16T11:03:49.424Z,53.30
2019-05-16T11:06:25.696Z,54.20
2019-05-16T11:08:49.862Z,54.90
2019-05-16T11:11:20.022Z,54.40
2019-05-16T11:13:51.227Z,55.80
2019-05-16T11:16:20.360Z,56.20
2019-05-16T11:18:49.584Z,55.60
2019-05-16T11:21:19.370Z,57.10
2019-05-16T11:23:48.791Z,57.10
2019-05-16T11:26:18.163Z,58.20
2019-05-16T11:28:48.733Z,58.40
2019-05-16T11:31:18.300Z,58.00
2019-05-16T11:33:47.823Z,59.00
2019-05-16T11:36:17.115Z,58.80
2019-05-16T11:38:47.470Z,58.50
2019-05-16T11:41:17.309Z,59.40
2019-05-16T11:43:47.329Z,59.00
2019-05-16T11:46:17.236Z,58.90
2019-05-16T11:48:48.884Z,58.90
2019-05-16T11:51:17.677Z,58.90
2019-05-16T11:53:47.718Z,58.50
2019-05-16T11:56:17.088Z,58.10
2019-05-16T11:58:47.370Z,59.00
2019-05-16T12:01:16.783Z,58.40
2019-05-16T12:03:46.784Z,58.60
2019-05-16T12:06:17.086Z,59.10
2019-05-16T12:08:47.668Z,59.30
2019-05-16T12:11:17.808Z,60.10
2019-05-16T12:13:47.741Z,61.00
2019-05-16T12:16:18.866Z,60.70
2019-05-16T12:18:48.042Z,59.90
2019-05-16T12:21:17.390Z,60.10
2019-05-16T12:23:47.315Z,60.40
2019-05-16T12:26:18.250Z,61.00
2019-05-16T12:28:47.471Z,60.50
2019-05-16T12:31:17.439Z,59.10
2019-05-16T12:33:47.874Z,59.30
2019-05-16T12:36:17.644Z,60.10
2019-05-16T12:38:46.982Z,59.50
2019-05-16T12:41:16.203Z,59.50
2019-05-16T12:43:50.545Z,60.20
2019-05-16T12:46:16.345Z,60.20
2019-05-16T12:48:47.389Z,60.40
2019-05-16T12:51:17.250Z,60.50
2019-05-16T12:53:47.936Z,60.50
2019-05-16T12:56:17.717Z,59.70
2019-05-16T12:58:47.347Z,60.30
2019-05-16T13:01:20.533Z,59.20
2019-05-16T13:03:48.177Z,59.60
2019-05-16T13:06:17.492Z,60.20
2019-05-16T13:08:46.881Z,60.00
2019-05-16T13:11:17.790Z,59.80
2019-05-16T13:14:02.452Z,59.80
2019-05-16T13:16:19.158Z,59.70
2019-05-16T13:18:48.386Z,58.70
2019-05-16T13:21:19.175Z,57.90
2019-05-16T13:23:48.519Z,57.50
2019-05-16T13:26:17.828Z,57.70
2019-05-16T13:28:47.755Z,57.10
2019-05-16T13:31:18.309Z,57.10
2019-05-16T13:33:47.831Z,56.20
2019-05-16T13:36:17.574Z,56.70
2019-05-16T13:38:48.132Z,57.90
2019-05-16T13:41:18.384Z,58.10
2019-05-16T13:43:47.741Z,57.60
2019-05-16T13:46:17.265Z,58.90
2019-05-16T13:48:46.547Z,59.00
2019-05-16T13:51:18.987Z,58.80
2019-05-16T13:53:47.223Z,59.60
2019-05-16T13:56:17.574Z,59.30
2019-05-16T13:58:47.249Z,59.60
2019-05-16T14:01:17.559Z,59.60
2019-05-16T14:03:48.211Z,59.70
2019-05-16T14:06:18.971Z,59.50
2019-05-16T14:08:49.217Z,59.40
2019-05-16T14:11:18.419Z,59.70
2019-05-16T14:13:47.662Z,60.50
2019-05-16T14:16:17.962Z,60.20
2019-05-16T14:18:48.476Z,60.70
2019-05-16T14:21:18.294Z,60.30
2019-05-16T14:23:53.447Z,61.00
2019-05-16T14:26:18.620Z,61.90
2019-05-16T14:28:48.747Z,62.70
2019-05-16T14:31:18.572Z,62.80
2019-05-16T14:33:47.807Z,63.00
2019-05-16T14:36:17.009Z,63.20
2019-05-16T14:38:47.299Z,63.20
2019-05-16T14:41:17.323Z,63.60
2019-05-16T14:43:46.986Z,63.90
2019-05-16T14:46:18.276Z,63.90
2019-05-16T14:48:47.247Z,64.30
2019-05-16T14:51:17.992Z,64.20
2019-05-16T14:53:47.375Z,64.40
2019-05-16T14:56:16.582Z,64.00
2019-05-16T14:58:48.530Z,64.10
2019-05-16T15:01:17.683Z,64.40
2019-05-16T15:03:47.429Z,64.60
2019-05-16T15:06:18.302Z,64.90
2019-05-16T15:08:47.831Z,64.80
2019-05-16T15:11:18.006Z,64.40
2019-05-16T15:13:47.549Z,64.40
2019-05-16T15:16:17.040Z,64.40
2019-05-16T15:18:47.435Z,64.80
2019-05-16T15:21:17.706Z,65.00
2019-05-16T15:23:47.086Z,65.00
2019-05-16T15:26:18.090Z,65.20
2019-05-16T15:28:47.904Z,65.30
2019-05-16T15:31:18.140Z,65.10
2019-05-16T15:33:47.675Z,65.50
2019-05-16T15:36:16.972Z,65.40
2019-05-16T15:38:47.207Z,65.30
2019-05-16T15:41:17.765Z,65.70
2019-05-16T15:43:47.962Z,65.90
2019-05-16T15:46:18.260Z,65.70
2019-05-16T15:48:48.750Z,65.90
2019-05-16T15:51:21.293Z,65.90
2019-05-16T15:53:50.239Z,66.10
2019-05-16T15:56:19.503Z,66.10
2019-05-16T15:58:48.731Z,66.40
2019-05-16T16:01:18.913Z,66.20
2019-05-16T16:03:48.135Z,66.60
2019-05-16T16:06:17.865Z,66.20
2019-05-16T16:08:48.412Z,66.30
2019-05-16T16:11:17.621Z,65.80
2019-05-16T16:13:48.432Z,66.50
2019-05-16T16:16:17.946Z,66.20
2019-05-16T16:18:47.176Z,66.30
2019-05-16T16:21:16.777Z,67.10
2019-05-16T16:23:47.343Z,66.70
2019-05-16T16:26:17.826Z,67.00
2019-05-16T16:28:47.584Z,67.10
2019-05-16T16:31:17.009Z,67.50
2019-05-16T16:33:46.385Z,67.90
2019-05-16T16:36:17.164Z,68.10
2019-05-16T16:38:47.830Z,68.80
2019-05-16T16:41:18.229Z,69.30
2019-05-16T16:43:47.795Z,69.50
2019-05-16T16:46:17.237Z,69.40
2019-05-16T16:48:46.445Z,69.30
2019-05-16T16:51:17.705Z,69.10
2019-05-16T16:53:47.032Z,69.40
2019-05-16T16:56:16.924Z,69.70
2019-05-16T16:58:46.720Z,69.40
2019-05-16T17:01:17.532Z,69.40
2019-05-16T17:03:47.149Z,69.30
2019-05-16T17:06:17.719Z,69.00
2019-05-16T17:08:47.491Z,69.30
2019-05-16T17:11:16.983Z,69.10
2019-05-16T17:13:47.240Z,69.50
2019-05-16T17:16:23.053Z,69.50
2019-05-16T17:18:47.629Z,69.70
2019-05-16T17:21:17.284Z,69.70
2019-05-16T17:23:46.666Z,69.80
2019-05-16T17:26:15.936Z,69.80
2019-05-16T17:28:46.734Z,69.70
2019-05-16T17:31:17.406Z,70.00
2019-05-16T17:33:46.694Z,69.90
2019-05-16T17:36:17.210Z,70.20
2019-05-16T17:38:46.727Z,70.30
2019-05-16T17:41:16.792Z,70.60
2019-05-16T17:43:46.949Z,70.80
2019-05-16T17:46:16.275Z,70.80
2019-05-16T17:48:46.786Z,71.00
2019-05-16T17:51:16.896Z,71.20
2019-05-16T17:53:46.315Z,71.20
2019-05-16T17:56:17.096Z,71.20
2019-05-16T17:58:46.919Z,70.90
2019-05-16T18:01:17.139Z,71.30
2019-05-16T18:03:46.630Z,71.20
2019-05-16T18:06:16.978Z,71.50
2019-05-16T18:08:47.502Z,72.00
2019-05-16T18:11:17.751Z,72.40
2019-05-16T18:13:47.195Z,72.40
2019-05-16T18:16:16.432Z,72.50
2019-05-16T18:18:46.862Z,72.70
2019-05-16T18:21:16.960Z,72.80
2019-05-16T18:23:47.224Z,72.80
2019-05-16T18:26:17.353Z,72.80
2019-05-16T18:28:46.821Z,72.80
2019-05-16T18:31:17.227Z,73.30
2019-05-16T18:33:46.935Z,73.80
2019-05-16T18:36:16.943Z,74.10
2019-05-16T18:38:46.693Z,74.70
2019-05-16T18:41:16.677Z,75.30
2019-05-16T18:43:47.269Z,75.50
2019-05-16T18:46:17.819Z,75.60
2019-05-16T18:48:47.244Z,75.60
2019-05-16T18:51:16.721Z,75.50
2019-05-16T18:53:46.588Z,75.70
2019-05-16T18:56:16.855Z,75.60
2019-05-16T18:58:46.736Z,75.70
2019-05-16T19:01:17.552Z,76.00
2019-05-16T19:03:48.956Z,75.60
2019-05-16T19:06:18.143Z,75.60
2019-05-16T19:08:47.369Z,75.50
2019-05-16T19:11:17.540Z,75.30
2019-05-16T19:13:48.038Z,74.50
2019-05-16T19:16:17.243Z,74.40
2019-05-16T19:18:46.542Z,75.20
2019-05-16T19:21:16.912Z,75.60
2019-05-16T19:23:46.346Z,75.70
2019-05-16T19:26:16.659Z,76.10
2019-05-16T19:28:46.727Z,76.20
2019-05-16T19:31:17.257Z,76.50
2019-05-16T19:33:48.778Z,76.70
2019-05-16T19:36:17.500Z,77.00
2019-05-16T19:38:46.716Z,77.10
2019-05-16T19:41:15.908Z,77.40
2019-05-16T19:43:46.672Z,77.60
2019-05-16T19:46:17.158Z,78.10
2019-05-16T19:48:46.564Z,78.30
2019-05-16T19:51:16.408Z,78.20
2019-05-16T19:53:47.130Z,78.40
2019-05-16T19:56:17.870Z,78.80
2019-05-16T19:58:47.310Z,79.20
2019-05-16T20:01:16.875Z,79.70
2019-05-16T20:03:47.141Z,79.90
2019-05-16T20:06:17.573Z,80.20
2019-05-16T20:08:46.791Z,80.30
2019-05-16T20:11:16.840Z,79.90
2019-05-16T20:13:47.400Z,79.70
2019-05-16T20:16:18.444Z,79.50
2019-05-16T20:18:47.864Z,79.30
2019-05-16T20:21:18.539Z,79.50
2019-05-16T20:23:47.984Z,79.30
2019-05-16T20:26:17.603Z,79.20
2019-05-16T20:28:47.466Z,79.20
2019-05-16T20:31:17.936Z,79.20
2019-05-16T20:33:47.165Z,79.40
2019-05-16T20:36:17.338Z,79.50
2019-05-16T20:38:46.773Z,79.90
2019-05-16T20:41:17.033Z,80.10
2019-05-16T20:43:47.524Z,80.30
2019-05-16T20:46:17.122Z,80.40
2019-05-16T20:48:47.515Z,80.50
2019-05-16T20:51:19.970Z,80.70
2019-05-16T20:53:49.804Z,81.00
2019-05-16T20:56:18.719Z,81.10
2019-05-16T20:58:48.696Z,81.20
2019-05-16T21:01:18.028Z,81.10
2019-05-16T21:03:47.238Z,81.10
2019-05-16T21:06:17.111Z,81.30
2019-05-16T21:08:49.597Z,80.80
2019-05-16T21:11:17.606Z,80.80
2019-05-16T21:13:48.859Z,80.40
2019-05-16T21:16:18.807Z,80.80
2019-05-16T21:18:48.019Z,80.70
2019-05-16T21:21:19.321Z,80.30
2019-05-16T21:23:48.158Z,80.00
2019-05-16T21:26:17.359Z,79.70
2019-05-16T21:28:46.587Z,79.50
2019-05-16T21:31:16.403Z,79.50
2019-05-16T21:33:47.103Z,79.70
2019-05-16T21:36:19.026Z,79.50
2019-05-16T21:38:47.338Z,79.50
2019-05-16T21:41:16.914Z,79.70
2019-05-16T21:43:46.985Z,79.90
2019-05-16T21:46:17.177Z,79.90
2019-05-16T21:48:47.320Z,80.10
2019-05-16T21:51:19.595Z,80.40
2019-05-16T21:53:47.566Z,80.00
2019-05-16T21:56:17.639Z,80.60
2019-05-16T21:58:47.347Z,80.80
2019-05-16T22:01:20.038Z,80.70
2019-05-16T22:03:49.307Z,81.00
2019-05-16T22:06:18.602Z,81.60
2019-05-16T22:08:47.885Z,82.10
2019-05-16T22:11:17.455Z,82.40
2019-05-16T22:13:48.271Z,81.70
2019-05-16T22:16:17.786Z,82.40
2019-05-16T22:18:47.637Z,82.60
2019-05-16T22:21:17.224Z,83.10
2019-05-16T22:23:46.734Z,82.00
2019-05-16T22:26:17.000Z,82.20
2019-05-16T22:28:49.488Z,82.70
2019-05-16T22:31:18.579Z,82.30
2019-05-16T22:33:47.811Z,83.30
2019-05-16T22:36:17.423Z,83.60
2019-05-16T22:38:46.901Z,83.60
2019-05-16T22:41:17.316Z,84.30
2019-05-16T22:43:47.696Z,84.60
2019-05-16T22:46:17.836Z,84.90
2019-05-16T22:48:47.280Z,85.60
2019-05-16T22:51:16.637Z,86.00
2019-05-16T22:53:45.954Z,86.10
2019-05-16T22:56:17.272Z,86.10
2019-05-16T22:58:46.905Z,86.40
2019-05-16T23:01:17.605Z,86.70
2019-05-16T23:03:47.172Z,87.00
2019-05-16T23:06:16.401Z,87.00
2019-05-16T23:08:47.145Z,87.10
2019-05-16T23:11:16.478Z,87.30
2019-05-16T23:13:46.254Z,87.50
2019-05-16T23:16:17.171Z,87.10
2019-05-16T23:18:46.623Z,87.40
2019-05-16T23:21:16.992Z,86.90
2019-05-16T23:23:46.592Z,87.50
2019-05-16T23:26:16.779Z,87.50
2019-05-16T23:28:47.293Z,87.40
2019-05-16T23:31:17.671Z,87.00
2019-05-16T23:33:47.118Z,87.10
2019-05-16T23:36:17.470Z,86.20
2019-05-16T23:38:47.451Z,86.80
2019-05-16T23:41:17.236Z,86.60
2019-05-16T23:43:47.232Z,86.60
2019-05-16T23:46:16.686Z,86.80
2019-05-16T23:48:47.206Z,86.90
2019-05-16T23:51:17.031Z,87.40
2019-05-16T23:53:46.503Z,87.40
2019-05-16T23:56:16.719Z,87.40
2019-05-16T23:58:47.696Z,87.40
